createdAt,value
2023-01-30T00:03:02.117Z,99159.63
2023-01-30T00:08:06.473Z,99141.88
2023-01-30T00:13:09.422Z,99142.84
2023-01-30T00:18:12.480Z,99139.63
2023-01-30T00:23:16.771Z,99122.06
2023-01-30T00:28:19.798Z,99127.22
2023-01-30T00:33:24.419Z,99122.06
2023-01-30T00:38:29.530Z,99122.38
2023-01-30T00:43:49.798Z,99103.66
2023-01-30T00:48:52.686Z,99105.03
2023-01-30T00:53:57.007Z,99078.66
2023-01-30T00:59:01.070Z,99063.06
2023-01-30T01:04:04.007Z,99052.66
2023-01-30T01:09:10.830Z,99067.44
2023-01-30T01:14:13.835Z,99037.09
2023-01-30T01:19:17.514Z,99044.94
2023-01-30T01:24:23.389Z,99036.81
2023-01-30T01:29:27.153Z,98999.72
2023-01-30T01:34:30.293Z,98993.50
2023-01-30T01:39:48.425Z,98964.84
2023-01-30T01:45:15.388Z,98978.63
2023-01-30T01:50:22.621Z,98951.00
2023-01-30T01:55:28.208Z,98960.75
2023-01-30T02:00:33.065Z,98919.06
2023-01-30T02:05:40.852Z,98908.25
2023-01-30T02:10:52.910Z,98861.69
2023-01-30T02:15:57.110Z,98838.81
2023-01-30T02:21:30.465Z,98846.50
2023-01-30T02:27:09.208Z,98851.34
2023-01-30T02:32:22.434Z,98827.75
2023-01-30T02:37:41.597Z,98829.91
2023-01-30T02:42:52.524Z,98832.22
2023-01-30T02:48:03.485Z,98851.69
2023-01-30T02:53:07.481Z,98834.00
2023-01-30T02:58:14.699Z,98810.09
2023-01-30T03:03:34.890Z,98784.56
2023-01-30T03:08:45.365Z,98769.69
2023-01-30T03:13:54.092Z,98756.94
2023-01-30T03:19:00.871Z,98760.19
2023-01-30T03:24:03.853Z,98722.75
2023-01-30T03:29:07.114Z,98709.28
2023-01-30T03:34:11.449Z,98705.31
2023-01-30T03:39:18.715Z,98722.09
2023-01-30T03:44:22.232Z,98703.59
2023-01-30T03:49:26.866Z,98674.44
2023-01-30T03:54:31.329Z,98671.91
2023-01-30T03:59:35.196Z,98670.00
2023-01-30T04:04:44.527Z,98682.28
2023-01-30T04:09:47.908Z,98672.16
2023-01-30T04:14:52.318Z,98678.63
2023-01-30T04:20:08.196Z,98673.44
2023-01-30T04:25:13.144Z,98656.84
2023-01-30T04:30:16.526Z,98643.94
2023-01-30T04:35:21.732Z,98622.34
2023-01-30T04:40:24.673Z,98614.94
2023-01-30T04:45:29.386Z,98618.34
2023-01-30T04:50:34.595Z,98613.00
2023-01-30T04:55:37.886Z,98599.16
2023-01-30T05:00:41.109Z,98573.31
2023-01-30T05:05:47.794Z,98568.47
2023-01-30T05:10:50.677Z,98537.00
2023-01-30T05:15:53.573Z,98527.47
2023-01-30T05:21:05.771Z,98537.13
2023-01-30T05:26:09.048Z,98528.06
2023-01-30T05:31:14.577Z,98505.81
2023-01-30T05:36:20.473Z,98488.84
2023-01-30T05:41:23.397Z,98503.84
2023-01-30T05:46:26.341Z,98483.19
2023-01-30T05:51:31.084Z,98475.16
2023-01-30T05:56:34.237Z,98458.34
2023-01-30T06:01:37.203Z,98465.25
2023-01-30T06:06:41.492Z,98463.16
2023-01-30T06:11:44.416Z,98460.81
2023-01-30T06:16:47.334Z,98451.81
2023-01-30T06:21:51.595Z,98441.47
2023-01-30T06:26:54.537Z,98460.00
2023-01-30T06:31:57.444Z,98452.56
2023-01-30T06:37:01.717Z,98439.59
2023-01-30T06:42:05.043Z,98446.41
2023-01-30T06:47:07.933Z,98441.97
2023-01-30T06:52:12.380Z,98459.44
2023-01-30T06:57:15.341Z,98464.28
2023-01-30T07:02:18.485Z,98455.28
2023-01-30T07:07:22.755Z,98464.69
2023-01-30T07:12:26.382Z,98469.09
2023-01-30T07:17:29.301Z,98464.38
2023-01-30T07:22:33.553Z,98449.19
2023-01-30T07:27:36.457Z,98451.56
2023-01-30T07:32:39.287Z,98450.66
2023-01-30T07:37:46.393Z,98455.00
2023-01-30T07:42:57.983Z,98447.41
2023-01-30T07:48:00.897Z,98448.69
2023-01-30T07:53:05.881Z,98435.41
2023-01-30T07:58:09.100Z,98438.03
2023-01-30T08:03:13.854Z,98440.50
2023-01-30T08:08:18.183Z,98444.75
2023-01-30T08:13:21.045Z,98433.84
2023-01-30T08:18:23.883Z,98429.59
2023-01-30T08:23:28.178Z,98438.97
2023-01-30T08:28:31.192Z,98423.16
2023-01-30T08:33:34.070Z,98424.22
2023-01-30T08:38:38.314Z,98436.16
2023-01-30T08:43:41.911Z,98427.75
2023-01-30T08:48:49.872Z,98404.13
2023-01-30T08:53:54.607Z,98427.78
2023-01-30T08:58:57.504Z,98419.09
2023-01-30T09:04:00.471Z,98427.53
2023-01-30T09:09:04.869Z,98423.56
2023-01-30T09:14:07.787Z,98424.09
2023-01-30T09:19:10.667Z,98416.78
2023-01-30T09:24:14.952Z,98431.50
2023-01-30T09:29:17.953Z,98436.81
2023-01-30T09:34:20.912Z,98423.94
2023-01-30T09:39:25.153Z,98441.63
2023-01-30T09:44:59.924Z,98424.41
2023-01-30T09:50:21.676Z,98421.53
2023-01-30T09:55:29.223Z,98423.56
2023-01-30T10:00:36.527Z,98394.47
2023-01-30T10:05:45.885Z,98399.31
2023-01-30T10:11:08.824Z,98392.16
2023-01-30T10:16:20.127Z,98364.19
2023-01-30T10:21:38.121Z,98367.41
2023-01-30T10:26:43.740Z,98347.56
2023-01-30T10:31:50.433Z,98362.38
2023-01-30T10:36:57.224Z,98387.16
2023-01-30T10:42:11.789Z,98387.75
2023-01-30T10:47:47.523Z,98387.34
2023-01-30T10:52:57.182Z,98382.22
2023-01-30T10:58:08.715Z,98389.38
2023-01-30T11:03:21.381Z,98375.03
2023-01-30T11:08:26.615Z,98384.41
2023-01-30T11:13:32.553Z,98367.50
2023-01-30T11:24:17.060Z,98383.44
2023-01-30T11:29:30.734Z,98387.50
2023-01-30T11:34:33.943Z,98388.19
2023-01-30T11:39:36.845Z,98376.50
2023-01-30T11:44:43.049Z,98382.66
2023-01-30T11:49:59.903Z,98372.13
2023-01-30T11:55:09.005Z,98368.72
2023-01-30T12:00:20.550Z,98374.09
2023-01-30T12:05:32.129Z,98351.94
2023-01-30T12:10:42.857Z,98339.25
2023-01-30T12:15:52.831Z,98334.97
2023-01-30T12:20:59.577Z,98317.94
2023-01-30T12:26:08.689Z,98327.88
2023-01-30T12:31:19.686Z,98300.09
2023-01-30T12:36:32.075Z,98303.94
2023-01-30T12:41:49.531Z,98291.97
2023-01-30T12:47:15.656Z,98292.66
2023-01-30T12:52:48.251Z,98285.41
2023-01-30T12:57:58.366Z,98288.47
2023-01-30T13:03:20.428Z,98284.81
2023-01-30T13:08:38.547Z,98287.63
2023-01-30T13:13:48.560Z,98290.84
2023-01-30T13:18:58.794Z,98286.88
2023-01-30T13:24:15.585Z,98282.31
2023-01-30T13:29:27.320Z,98278.44
2023-01-30T13:34:35.032Z,98274.16
2023-01-30T13:39:43.504Z,98275.22
2023-01-30T13:44:49.070Z,98286.69
2023-01-30T13:50:17.804Z,98268.69
2023-01-30T13:55:32.708Z,98269.72
2023-01-30T14:00:36.752Z,98267.81
2023-01-30T14:06:11.447Z,98271.09
2023-01-30T14:11:47.898Z,98278.53
2023-01-30T14:16:53.415Z,98268.97
2023-01-30T14:21:59.560Z,98273.00
2023-01-30T14:27:23.885Z,98281.22
2023-01-30T14:32:53.561Z,98284.41
2023-01-30T14:38:12.956Z,98306.28
2023-01-30T14:43:53.577Z,98299.97
2023-01-30T14:49:05.036Z,98300.72
2023-01-30T14:54:25.473Z,98310.34
2023-01-30T14:59:33.436Z,98300.66
2023-01-30T15:04:44.737Z,98300.28
2023-01-30T15:09:55.178Z,98299.38
2023-01-30T15:15:07.118Z,98307.88
2023-01-30T15:20:21.885Z,98311.75
2023-01-30T15:25:37.622Z,98321.69
2023-01-30T15:31:03.782Z,98324.47
2023-01-30T15:36:20.265Z,98354.16
2023-01-30T15:41:25.099Z,98366.13
2023-01-30T15:46:38.238Z,98374.13
2023-01-30T15:51:41.160Z,98384.38
2023-01-30T15:56:48.829Z,98389.63
2023-01-30T16:02:00.622Z,98398.13
2023-01-30T16:07:15.903Z,98409.66
2023-01-30T16:12:27.657Z,98411.25
2023-01-30T16:17:32.640Z,98406.16
2023-01-30T16:22:36.129Z,98426.88
2023-01-30T16:27:40.923Z,98424.13
2023-01-30T16:32:44.164Z,98414.75
2023-01-30T16:37:47.109Z,98412.69
2023-01-30T16:42:59.774Z,98422.88
2023-01-30T16:48:25.397Z,98419.03
2023-01-30T16:53:30.516Z,98423.94
2023-01-30T16:58:36.685Z,98421.97
2023-01-30T17:03:42.344Z,98446.91
2023-01-30T17:08:52.171Z,98461.53
2023-01-30T17:14:11.784Z,98453.34
2023-01-30T17:19:15.105Z,98455.38
2023-01-30T17:24:21.658Z,98479.84
2023-01-30T17:29:41.601Z,98472.63
2023-01-30T17:34:45.511Z,98458.25
2023-01-30T17:39:48.539Z,98463.28
2023-01-30T17:44:54.024Z,98476.03
2023-01-30T17:49:56.943Z,98478.16
2023-01-30T17:54:59.880Z,98485.69
2023-01-30T18:00:04.709Z,98497.19
2023-01-30T18:05:27.855Z,98516.41
2023-01-30T18:10:30.869Z,98501.47
2023-01-30T18:15:35.202Z,98547.41
2023-01-30T18:20:38.101Z,98549.38
2023-01-30T18:25:40.993Z,98580.94
2023-01-30T18:30:45.355Z,98590.75
2023-01-30T18:35:48.359Z,98589.59
2023-01-30T18:40:51.224Z,98606.06
2023-01-30T18:46:05.080Z,98625.44
2023-01-30T18:51:09.017Z,98617.44
2023-01-30T18:56:14.377Z,98626.47
2023-01-30T19:01:20.761Z,98631.94
2023-01-30T19:06:24.416Z,98647.75
2023-01-30T19:11:45.146Z,98658.47
2023-01-30T19:16:51.241Z,98672.22
2023-01-30T19:21:54.176Z,98666.69
2023-01-30T19:26:57.177Z,98677.25
2023-01-30T19:32:01.584Z,98687.56
2023-01-30T19:37:04.837Z,98704.72
2023-01-30T19:42:07.786Z,98708.56
2023-01-30T19:47:12.022Z,98729.28
2023-01-30T19:52:14.909Z,98745.13
2023-01-30T19:57:17.806Z,98748.53
2023-01-30T20:02:22.085Z,98753.91
2023-01-30T20:07:24.998Z,98768.81
2023-01-30T20:12:27.944Z,98774.94
2023-01-30T20:17:33.880Z,98786.28
2023-01-30T20:22:36.787Z,98778.19
2023-01-30T20:27:39.973Z,98786.75
2023-01-30T20:32:44.249Z,98782.00
2023-01-30T20:37:47.127Z,98788.41
2023-01-30T20:42:49.989Z,98793.41
2023-01-30T20:47:54.208Z,98789.59
2023-01-30T20:52:57.073Z,98819.03
2023-01-30T20:57:59.938Z,98817.97
2023-01-30T21:03:04.293Z,98838.19
2023-01-30T21:08:07.284Z,98840.50
2023-01-30T21:13:10.653Z,98867.53
2023-01-30T21:18:14.934Z,98858.91
2023-01-30T21:23:17.822Z,98854.66
2023-01-30T21:28:20.751Z,98866.78
2023-01-30T21:33:25.079Z,98872.66
2023-01-30T21:38:45.563Z,98870.66
2023-01-30T21:43:49.120Z,98868.13
2023-01-30T21:48:53.506Z,98892.00
2023-01-30T21:53:57.283Z,98906.41
2023-01-30T21:59:01.240Z,98900.50
2023-01-30T22:04:07.174Z,98905.69
2023-01-30T22:09:12.708Z,98899.50
2023-01-30T22:14:15.572Z,98913.59
2023-01-30T22:19:19.803Z,98911.81
2023-01-30T22:24:22.725Z,98927.84
2023-01-30T22:29:25.692Z,98935.94
2023-01-30T22:34:29.912Z,98955.50
2023-01-30T22:39:32.787Z,98970.06
2023-01-30T22:44:35.942Z,98984.69
2023-01-30T22:49:40.194Z,98994.06
2023-01-30T22:54:43.119Z,98991.66
2023-01-30T22:59:45.978Z,98996.66
2023-01-30T23:04:50.518Z,98986.63
2023-01-30T23:09:53.361Z,98984.03
2023-01-30T23:14:56.232Z,98983.22
2023-01-30T23:20:00.457Z,98992.09
2023-01-30T23:25:03.613Z,98986.44
2023-01-30T23:30:07.740Z,98977.66
2023-01-30T23:35:11.989Z,98978.81
2023-01-30T23:40:14.946Z,98982.22
2023-01-30T23:45:18.385Z,98984.00
2023-01-30T23:50:22.818Z,98998.72
2023-01-30T23:55:25.646Z,98999.56
